Time;durP1;ratioP1;P1;durP2;ratioP2;P2;SDS_P1;SDS_P2;PMS_P1;PMS_P2;Temp;Humidity;BMP_temperature;BMP_pressure;BME280_temperature;BME280_humidity;BME280_pressure;Samples;Min_cycle;Max_cycle;Signal;HPM_P1;HPM_P2
2021/04/01 00:01:15;;;;;;;15.40;9.07;;;12.50;99.90;;;;;;4997722;28;20502;-80
2021/04/01 00:03:49;;;;;;;12.07;9.40;;;12.50;99.90;;;;;;5028378;28;20442;-81
2021/04/01 00:06:15;;;;;;;14.97;8.13;;;12.50;99.90;;;;;;5033134;28;20959;-81
2021/04/01 00:08:43;;;;;;;10.63;8.60;;;12.50;99.90;;;;;;5019342;28;20457;-81
2021/04/01 00:11:17;;;;;;;13.47;8.60;;;12.40;99.90;;;;;;5031894;28;20485;-80
2021/04/01 00:13:43;;;;;;;11.60;9.00;;;12.40;99.90;;;;;;5013651;28;20466;-80
2021/04/01 00:16:09;;;;;;;16.20;8.73;;;12.40;99.90;;;;;;5014454;28;20460;-80
2021/04/01 00:18:35;;;;;;;10.73;8.57;;;12.40;99.90;;;;;;5033002;28;20434;-80
2021/04/01 00:21:03;;;;;;;17.50;10.57;;;12.40;99.90;;;;;;5001785;28;20442;-80
2021/04/01 00:23:36;;;;;;;13.50;8.63;;;12.40;99.90;;;;;;5019840;28;20510;-81
2021/04/01 00:26:02;;;;;;;9.97;8.60;;;12.40;99.90;;;;;;5032080;28;20907;-80
2021/04/01 00:28:28;;;;;;;13.80;8.73;;;12.30;99.90;;;;;;5012726;28;20513;-80
2021/04/01 00:31:04;;;;;;;7.77;7.03;;;12.40;99.90;;;;;;5027147;28;20444;-81
2021/04/01 00:33:35;;;;;;;11.20;7.53;;;12.40;99.90;;;;;;5059178;28;20580;-81
2021/04/01 00:36:01;;;;;;;8.33;7.57;;;12.40;99.90;;;;;;5030791;28;20438;-80
2021/04/01 00:38:31;;;;;;;9.20;7.37;;;12.40;99.90;;;;;;5031391;28;20492;-80
2021/04/01 00:40:58;;;;;;;9.43;7.63;;;12.40;99.90;;;;;;5048766;28;20436;-81
2021/04/01 00:43:24;;;;;;;8.90;8.00;;;12.30;99.90;;;;;;5029852;28;20744;-81
2021/04/01 00:45:57;;;;;;;11.43;8.37;;;12.30;99.90;;;;;;5032236;28;20408;-81
2021/04/01 00:48:23;;;;;;;17.00;7.73;;;12.30;99.90;;;;;;5014779;28;20447;-80
2021/04/01 00:50:53;;;;;;;8.00;7.20;;;12.30;99.90;;;;;;5018446;28;20907;-81
2021/04/01 00:53:28;;;;;;;13.90;7.73;;;12.20;99.90;;;;;;5037974;28;20882;-81
2021/04/01 00:55:58;;;;;;;18.27;9.57;;;12.20;99.90;;;;;;5053019;28;20859;-81
2021/04/01 00:58:28;;;;;;;12.63;9.67;;;12.20;99.90;;;;;;5018706;28;20519;-81
2021/04/01 01:01:13;;;;;;;14.47;10.30;;;12.20;99.90;;;;;;5013824;28;20417;-81
2021/04/01 01:03:41;;;;;;;10.27;8.47;;;12.20;99.90;;;;;;5032455;28;20429;-81
2021/04/01 01:06:07;;;;;;;12.93;8.13;;;12.20;99.90;;;;;;5033371;28;20471;-81
2021/04/01 01:08:35;;;;;;;10.53;8.47;;;12.10;99.90;;;;;;5021287;28;20421;-81
2021/04/01 01:11:04;;;;;;;8.23;7.53;;;12.10;99.90;;;;;;5015788;28;20726;-81
2021/04/01 01:13:31;;;;;;;10.83;8.77;;;12.10;99.90;;;;;;5030484;28;20433;-81
2021/04/01 01:16:00;;;;;;;11.33;8.77;;;12.00;99.90;;;;;;5036098;28;20525;-81
2021/04/01 01:18:27;;;;;;;10.07;9.07;;;12.00;99.90;;;;;;5019194;28;20745;-81
2021/04/01 01:21:02;;;;;;;9.50;8.50;;;12.00;99.90;;;;;;5034876;28;20484;-80
2021/04/01 01:23:29;;;;;;;9.83;8.30;;;11.90;99.90;;;;;;5022696;28;20517;-81
2021/04/01 01:25:57;;;;;;;14.73;7.97;;;11.90;99.90;;;;;;5035767;28;20414;-81
2021/04/01 01:28:24;;;;;;;12.57;8.43;;;11.90;99.90;;;;;;5032671;28;20491;-81
2021/04/01 01:30:51;;;;;;;9.13;8.27;;;11.90;99.90;;;;;;5024728;28;20447;-80
2021/04/01 01:33:22;;;;;;;15.00;8.47;;;11.90;99.90;;;;;;5025913;28;20473;-81
2021/04/01 01:35:51;;;;;;;8.80;7.90;;;11.80;99.90;;;;;;5032770;28;21007;-80
2021/04/01 01:38:19;;;;;;;10.37;8.53;;;11.80;99.90;;;;;;5029038;28;20426;-80
2021/04/01 01:40:48;;;;;;;10.37;8.57;;;11.80;99.90;;;;;;5025496;28;20792;-80
2021/04/01 01:43:16;;;;;;;11.30;9.33;;;11.80;99.90;;;;;;5016079;28;20420;-80
2021/04/01 01:45:44;;;;;;;9.67;8.70;;;11.70;99.90;;;;;;5024605;28;20468;-80
2021/04/01 01:48:10;;;;;;;12.20;8.40;;;11.70;99.90;;;;;;5017869;28;20482;-80
2021/04/01 01:50:40;;;;;;;12.50;8.53;;;11.70;99.90;;;;;;5034325;28;20458;-81
2021/04/01 01:53:09;;;;;;;11.70;9.33;;;11.70;99.90;;;;;;5020903;28;20434;-81
2021/04/01 01:55:39;;;;;;;15.83;8.50;;;11.70;99.90;;;;;;5018123;28;20467;-80
2021/04/01 01:58:05;;;;;;;13.50;9.10;;;11.70;99.90;;;;;;5030355;28;20435;-81
2021/04/01 02:00:41;;;;;;;9.97;8.00;;;11.70;99.90;;;;;;5035429;28;20465;-80
2021/04/01 02:03:09;;;;;;;10.63;9.03;;;11.70;99.90;;;;;;5043192;28;20522;-80
2021/04/01 02:05:40;;;;;;;10.20;9.30;;;11.70;99.90;;;;;;5031348;28;20431;-81
2021/04/01 02:08:12;;;;;;;10.53;8.97;;;11.80;99.90;;;;;;5025247;28;20464;-80
2021/04/01 02:10:46;;;;;;;11.40;8.53;;;11.70;99.90;;;;;;5051332;28;20414;-80
2021/04/01 02:13:19;;;;;;;10.17;7.80;;;11.70;99.90;;;;;;5034153;28;20457;-81
2021/04/01 02:15:52;;;;;;;13.63;8.10;;;11.70;99.90;;;;;;5033485;28;20486;-80
2021/04/01 02:18:26;;;;;;;10.80;8.17;;;11.70;99.90;;;;;;5031043;28;20447;-80
2021/04/01 02:20:57;;;;;;;13.40;8.63;;;11.70;99.90;;;;;;5030405;28;20423;-80
2021/04/01 02:23:30;;;;;;;8.20;7.40;;;11.70;99.90;;;;;;5014520;28;20424;-80
2021/04/01 02:26:01;;;;;;;13.37;7.83;;;11.60;99.90;;;;;;5031966;28;20458;-80
2021/04/01 02:28:31;;;;;;;7.80;7.00;;;11.50;99.90;;;;;;5029763;28;20427;-80
2021/04/01 02:31:01;;;;;;;8.30;7.50;;;11.50;99.90;;;;;;5060304;28;20471;-81
2021/04/01 02:33:33;;;;;;;10.37;7.40;;;11.50;99.90;;;;;;5039405;28;20483;-81
2021/04/01 02:36:02;;;;;;;13.00;8.43;;;11.50;99.90;;;;;;5054158;28;20509;-81
2021/04/01 02:38:30;;;;;;;8.97;8.17;;;11.40;99.90;;;;;;5029945;28;20424;-80
2021/04/01 02:40:59;;;;;;;14.80;9.43;;;11.40;99.90;;;;;;5028393;28;20436;-80
2021/04/01 02:45:53;;;;;;;10.77;7.70;;;11.40;99.90;;;;;;5015008;28;20452;-81
2021/04/01 02:48:24;;;;;;;9.57;8.03;;;11.50;99.90;;;;;;5032406;28;20952;-80
2021/04/01 02:50:50;;;;;;;8.53;7.63;;;11.50;99.90;;;;;;5034834;28;20428;-81
2021/04/01 02:53:21;;;;;;;9.97;8.90;;;11.50;99.90;;;;;;5016432;28;20768;-80
2021/04/01 02:55:48;;;;;;;12.17;8.57;;;11.50;99.90;;;;;;5032677;28;20526;-80
2021/04/01 02:58:18;;;;;;;14.10;8.90;;;11.50;99.90;;;;;;5049068;28;20517;-81
2021/04/01 03:00:44;;;;;;;11.83;9.27;;;11.60;99.90;;;;;;5015029;28;20511;-80
2021/04/01 03:03:26;;;;;;;13.63;9.30;;;11.60;99.90;;;;;;5035064;28;20511;-80
2021/04/01 03:06:00;;;;;;;13.57;9.60;;;11.60;99.90;;;;;;5054428;28;20444;-81
2021/04/01 03:08:27;;;;;;;13.63;9.70;;;11.60;99.90;;;;;;5020558;28;20438;-81
2021/04/01 03:10:53;;;;;;;13.60;9.10;;;11.60;99.90;;;;;;5014702;28;20417;-80
2021/04/01 03:13:26;;;;;;;10.53;8.93;;;11.60;99.90;;;;;;5027927;28;20898;-81
2021/04/01 03:15:52;;;;;;;11.57;9.53;;;11.70;99.90;;;;;;5032907;28;20427;-80
2021/04/01 03:18:25;;;;;;;14.77;9.90;;;11.60;99.90;;;;;;5019761;28;20437;-81
2021/04/01 03:20:51;;;;;;;11.77;10.43;;;11.70;99.90;;;;;;5034058;28;20890;-81
2021/04/01 03:23:25;;;;;;;16.30;10.43;;;11.70;99.90;;;;;;5033957;28;20425;-81
2021/04/01 03:25:53;;;;;;;15.70;10.47;;;11.70;99.90;;;;;;5058807;28;20454;-81
2021/04/01 03:28:25;;;;;;;13.20;9.83;;;11.60;99.90;;;;;;5034549;28;20632;-81
2021/04/01 03:31:01;;;;;;;14.63;10.60;;;11.60;99.90;;;;;;5034251;28;20437;-80
2021/04/01 03:33:30;;;;;;;14.33;11.50;;;11.60;99.90;;;;;;5028916;28;20530;-81
2021/04/01 03:36:01;;;;;;;18.43;11.00;;;11.60;99.90;;;;;;5066999;28;20451;-81
2021/04/01 03:38:32;;;;;;;16.13;11.10;;;11.60;99.90;;;;;;5018294;28;20439;-80
2021/04/01 03:41:00;;;;;;;17.77;9.90;;;11.60;99.90;;;;;;5013628;28;20894;-81
2021/04/01 03:43:32;;;;;;;12.67;10.30;;;11.60;99.90;;;;;;5031928;28;20438;-80
2021/04/01 03:45:59;;;;;;;11.50;10.30;;;11.60;99.90;;;;;;5019119;28;20447;-81
2021/04/01 03:48:25;;;;;;;15.60;10.70;;;11.70;99.90;;;;;;5032208;28;20781;-80
2021/04/01 03:50:51;;;;;;;13.80;10.17;;;11.70;99.90;;;;;;5032542;28;20423;-81
2021/04/01 03:53:22;;;;;;;16.90;10.03;;;11.60;99.90;;;;;;5033177;28;20809;-81
2021/04/01 03:55:49;;;;;;;13.47;11.20;;;11.70;99.90;;;;;;5039486;28;20444;-80
2021/04/01 04:00:52;;;;;;;15.80;11.40;;;11.70;99.90;;;;;;5025875;28;20430;-81
2021/04/01 04:04:17;;;;;;;12.00;10.80;;;11.60;99.90;;;;;;5035809;28;20431;-81
2021/04/01 04:11:56;;;;;;;13.33;11.93;;;11.70;99.90;;;;;;5013842;28;20489;-81
2021/04/01 04:14:32;;;;;;;17.80;14.00;;;11.70;99.90;;;;;;5017005;28;20481;-81
2021/04/01 04:16:58;;;;;;;18.53;13.07;;;11.70;99.90;;;;;;5031351;28;20417;-81
2021/04/01 04:19:29;;;;;;;13.60;11.73;;;11.70;99.90;;;;;;5033270;28;20471;-80
2021/04/01 04:21:55;;;;;;;19.93;12.80;;;11.70;99.90;;;;;;5031950;28;20448;-80
2021/04/01 04:24:21;;;;;;;13.60;11.40;;;11.70;99.90;;;;;;5014758;28;20457;-80
2021/04/01 04:26:50;;;;;;;17.83;11.53;;;11.70;99.90;;;;;;4996719;28;20965;-80
2021/04/01 04:29:21;;;;;;;16.23;13.87;;;11.70;99.90;;;;;;5025673;28;20478;-80
2021/04/01 04:31:49;;;;;;;16.17;12.10;;;11.60;99.90;;;;;;5001260;28;20447;-81
2021/04/01 04:34:15;;;;;;;19.07;12.30;;;11.60;99.90;;;;;;5032977;28;20997;-80
2021/04/01 04:36:44;;;;;;;14.43;12.70;;;11.60;99.90;;;;;;5030622;28;20440;-80
2021/04/01 04:39:14;;;;;;;16.43;12.67;;;11.60;99.90;;;;;;5037113;28;20498;-80
2021/04/01 04:41:42;;;;;;;15.80;13.10;;;11.60;99.90;;;;;;5000225;28;20897;-81
2021/04/01 04:44:10;;;;;;;14.73;11.97;;;11.50;99.90;;;;;;5036342;28;20436;-81
2021/04/01 04:46:39;;;;;;;16.97;11.40;;;11.50;99.90;;;;;;5014968;28;20813;-81
2021/04/01 04:49:09;;;;;;;17.23;13.07;;;11.50;99.90;;;;;;5028158;28;20439;-80
2021/04/01 04:51:35;;;;;;;18.97;12.47;;;11.40;99.90;;;;;;5041624;28;20523;-81
2021/04/01 04:54:03;;;;;;;15.57;12.63;;;11.40;99.90;;;;;;5018981;28;20779;-81
2021/04/01 04:56:34;;;;;;;24.87;12.00;;;11.30;99.90;;;;;;5003227;28;20443;-80
2021/04/01 04:59:10;;;;;;;15.77;12.33;;;11.30;99.90;;;;;;5051986;28;20813;-80
2021/04/01 05:04:41;;;;;;;15.23;11.87;;;11.20;99.90;;;;;;5031056;28;20955;-80
2021/04/01 05:07:12;;;;;;;15.03;12.90;;;11.20;99.90;;;;;;5046889;28;20459;-80
2021/04/01 05:09:40;;;;;;;14.43;11.97;;;11.20;99.90;;;;;;5016838;28;20414;-79
2021/04/01 05:12:10;;;;;;;14.70;12.20;;;11.10;99.90;;;;;;5017008;28;20463;-81
2021/04/01 05:14:43;;;;;;;17.73;13.00;;;11.00;99.90;;;;;;5016275;28;20762;-80
2021/04/01 05:17:19;;;;;;;16.27;12.23;;;11.00;99.90;;;;;;5027743;28;20449;-80
2021/04/01 05:19:47;;;;;;;15.10;12.00;;;11.00;99.90;;;;;;5035828;28;20502;-80
2021/04/01 05:22:33;;;;;;;18.20;12.70;;;10.90;99.90;;;;;;5034801;28;20479;-80
2021/04/01 05:25:01;;;;;;;17.33;12.27;;;10.90;99.90;;;;;;5035258;28;20431;-80
2021/04/01 05:27:48;;;;;;;15.90;12.93;;;10.90;99.90;;;;;;5032231;28;20453;-80
2021/04/01 05:30:16;;;;;;;16.03;12.90;;;10.90;99.90;;;;;;5035644;28;20409;-80
2021/04/01 05:32:43;;;;;;;16.77;12.13;;;10.90;99.90;;;;;;5044893;28;20534;-80
2021/04/01 05:35:15;;;;;;;17.30;12.47;;;10.80;99.90;;;;;;5036358;28;20434;-79
2021/04/01 05:37:44;;;;;;;14.10;11.60;;;10.80;99.90;;;;;;5026183;28;20445;-80
2021/04/01 05:40:15;;;;;;;15.43;12.83;;;10.80;99.90;;;;;;5052015;28;20436;-80
2021/04/01 05:42:45;;;;;;;16.60;11.90;;;10.80;99.90;;;;;;5023609;28;20425;-81
2021/04/01 05:47:51;;;;;;;17.27;11.60;;;10.70;99.90;;;;;;5022631;28;20542;-80
2021/04/01 05:50:37;;;;;;;17.80;12.10;;;10.70;99.90;;;;;;5001031;28;21067;-81
2021/04/01 06:04:20;;;;;;;20.93;13.50;;;10.80;99.90;;;;;;5039146;28;20428;-81
2021/04/01 06:06:59;;;;;;;19.50;13.17;;;10.80;99.90;;;;;;5021999;28;21129;-89
2021/04/01 06:09:27;;;;;;;25.67;14.30;;;10.80;99.90;;;;;;5019762;28;20495;-89
2021/04/01 06:11:57;;;;;;;15.83;13.00;;;10.90;99.90;;;;;;5020069;28;20408;-88
2021/04/01 06:14:55;;;;;;;21.37;14.30;;;10.90;99.90;;;;;;5021180;28;20426;-96
2021/04/01 06:17:30;;;;;;;21.23;14.20;;;11.00;99.90;;;;;;5016426;28;20489;-88
2021/04/01 06:20:06;;;;;;;23.53;15.53;;;11.00;99.90;;;;;;5008668;28;20724;-87
2021/04/01 06:22:40;;;;;;;21.77;14.87;;;11.10;99.90;;;;;;5004210;28;20426;-89
2021/04/01 06:25:21;;;;;;;21.50;14.47;;;11.10;99.90;;;;;;5003533;28;20494;-88
2021/04/01 06:27:55;;;;;;;22.30;14.60;;;11.20;99.90;;;;;;5002959;28;20462;-87
2021/04/01 06:33:03;;;;;;;22.33;15.43;;;11.30;99.90;;;;;;5010735;28;20903;-87
2021/04/01 06:35:41;;;;;;;24.50;15.93;;;11.30;99.90;;;;;;5019015;28;20773;-87
2021/04/01 06:40:40;;;;;;;23.13;15.30;;;11.50;99.90;;;;;;4999019;28;20889;-87
2021/04/01 06:43:48;;;;;;;20.93;16.27;;;11.60;99.90;;;;;;5007233;28;20431;-88
2021/04/01 06:46:17;;;;;;;22.40;15.17;;;11.70;99.90;;;;;;4997355;28;20447;-87
2021/04/01 06:51:21;;;;;;;24.17;14.50;;;11.90;99.90;;;;;;5023237;28;20433;-88
2021/04/01 06:54:02;;;;;;;23.73;17.27;;;12.00;99.90;;;;;;5013121;28;20422;-87
2021/04/01 07:04:43;;;;;;;24.67;17.37;;;12.50;99.90;;;;;;5035416;28;20433;-80
2021/04/01 07:07:15;;;;;;;23.30;19.53;;;12.60;99.90;;;;;;5030302;28;20470;-82
2021/04/01 07:12:28;;;;;;;29.87;19.07;;;12.90;99.90;;;;;;5041235;28;20448;-80
2021/04/01 07:15:08;;;;;;;37.97;20.80;;;13.00;99.90;;;;;;5037840;28;20972;-83
2021/04/01 07:17:47;;;;;;;29.03;20.43;;;13.10;99.90;;;;;;5029609;28;20448;-82
2021/04/01 07:20:40;;;;;;;31.00;22.77;;;13.30;99.90;;;;;;5034234;28;20427;-82
2021/04/01 07:23:43;;;;;;;34.47;23.87;;;13.50;99.90;;;;;;5033578;28;20438;-82
2021/04/01 07:32:49;;;;;;;37.43;24.73;;;13.80;99.90;;;;;;5028134;28;20471;-79
2021/04/01 07:46:33;;;;;;;57.10;34.47;;;14.60;99.90;;;;;;5033590;28;20453;-79
2021/04/01 07:49:09;;;;;;;64.03;36.60;;;14.70;99.90;;;;;;5044365;28;20442;-85
2021/04/01 07:55:07;;;;;;;64.17;37.43;;;14.90;99.20;;;;;;5040590;28;20431;-84
2021/04/01 08:05:52;;;;;;;53.60;34.83;;;15.40;95.30;;;;;;5015342;28;20437;-83
2021/04/01 08:08:19;;;;;;;65.87;34.50;;;15.60;96.10;;;;;;4998194;28;20471;-83
2021/04/01 08:10:48;;;;;;;61.77;36.10;;;15.70;96.00;;;;;;4987134;28;20456;-83
2021/04/01 08:13:29;;;;;;;56.17;37.20;;;15.80;96.20;;;;;;5029702;28;20443;-84
2021/04/01 08:16:03;;;;;;;55.30;35.37;;;15.90;95.50;;;;;;5037566;28;20441;-83
2021/04/01 08:18:36;;;;;;;57.57;36.60;;;16.10;96.20;;;;;;5044365;28;20497;-83
2021/04/01 08:21:10;;;;;;;56.93;34.53;;;16.10;95.60;;;;;;5042507;28;20467;-81
2021/04/01 08:23:51;;;;;;;54.93;35.23;;;16.30;94.80;;;;;;5052789;28;20445;-83
2021/04/01 08:26:41;;;;;;;60.70;35.77;;;16.50;95.30;;;;;;5046059;28;20476;-85
2021/04/01 08:34:39;;;;;;;68.27;38.90;;;16.90;94.40;;;;;;5047936;28;21218;-88
2021/04/01 08:37:09;;;;;;;73.90;38.07;;;17.10;93.60;;;;;;5045404;28;20527;-89
2021/04/01 08:39:38;;;;;;;69.97;40.17;;;17.10;93.90;;;;;;5046533;28;20448;-89
2021/04/01 08:42:07;;;;;;;67.83;39.60;;;17.30;93.40;;;;;;5040122;28;20525;-86
2021/04/01 08:44:52;;;;;;;65.67;39.60;;;17.50;92.90;;;;;;5053385;28;20442;-83
2021/04/01 08:48:08;;;;;;;63.10;38.00;;;17.70;93.10;;;;;;5033048;28;20473;-87
2021/04/01 08:51:04;;;;;;;65.97;38.97;;;17.80;91.70;;;;;;5014425;28;20439;-88
2021/04/01 08:54:02;;;;;;;69.27;37.40;;;17.90;91.70;;;;;;5025396;28;20439;-86
2021/04/01 08:56:58;;;;;;;60.83;37.70;;;18.00;91.00;;;;;;5043272;28;20440;-91
2021/04/01 08:59:26;;;;;;;63.57;40.27;;;17.90;90.50;;;;;;5036376;28;20478;-93
2021/04/01 09:01:57;;;;;;;77.20;39.53;;;18.00;90.40;;;;;;5042681;28;20440;-85
2021/04/01 09:04:30;;;;;;;64.00;39.20;;;18.20;90.20;;;;;;5040362;28;20435;-88
2021/04/01 09:07:02;;;;;;;64.73;38.57;;;18.50;91.40;;;;;;5037698;28;20852;-88
2021/04/01 09:09:34;;;;;;;66.50;38.93;;;18.60;90.30;;;;;;5045813;28;20437;-90
2021/04/01 09:12:17;;;;;;;66.77;38.73;;;18.80;88.80;;;;;;5045706;28;20757;-84
2021/04/01 09:14:56;;;;;;;67.80;40.93;;;19.00;89.90;;;;;;5051565;28;20430;-86
2021/04/01 09:17:38;;;;;;;73.80;43.47;;;19.20;87.60;;;;;;5051049;28;20444;-86
2021/04/01 09:20:21;;;;;;;67.20;40.20;;;19.40;84.30;;;;;;5057691;28;20443;-88
2021/04/01 09:22:49;;;;;;;67.90;39.43;;;19.50;85.00;;;;;;5030744;28;20430;-91
2021/04/01 09:25:17;;;;;;;73.30;39.00;;;19.60;82.60;;;;;;5053093;28;20456;-89
2021/04/01 09:27:52;;;;;;;75.50;37.30;;;19.90;82.20;;;;;;5046061;28;20466;-88
2021/04/01 09:30:26;;;;;;;73.10;39.10;;;20.00;76.20;;;;;;5054098;28;20575;-88
2021/04/01 09:33:01;;;;;;;73.60;36.37;;;20.10;75.60;;;;;;5046613;28;20809;-89
2021/04/01 09:35:28;;;;;;;73.33;40.20;;;19.90;74.60;;;;;;5036624;28;20438;-88
2021/04/01 09:37:59;;;;;;;70.00;40.00;;;20.00;73.70;;;;;;5034561;28;20490;-87
2021/04/01 09:40:38;;;;;;;68.80;38.47;;;20.10;76.40;;;;;;5032835;28;20493;-86
2021/04/01 09:43:15;;;;;;;65.60;34.93;;;20.20;75.20;;;;;;5041032;28;20456;-88
2021/04/01 09:45:41;;;;;;;68.70;34.43;;;20.30;71.50;;;;;;5035481;28;20432;-89
2021/04/01 09:48:29;;;;;;;60.57;34.80;;;20.40;69.60;;;;;;5030200;28;20480;-87
2021/04/01 09:51:00;;;;;;;66.80;36.43;;;20.60;69.50;;;;;;5038869;28;20488;-91
2021/04/01 09:53:29;;;;;;;66.93;34.73;;;20.70;69.00;;;;;;5055455;28;20912;-85
2021/04/01 09:56:00;;;;;;;66.10;37.03;;;20.80;67.70;;;;;;5035530;28;20421;-84
2021/04/01 09:58:30;;;;;;;69.80;40.23;;;20.90;66.10;;;;;;5037345;28;20431;-83
2021/04/01 10:01:53;;;;;;;72.57;39.10;;;20.90;66.90;;;;;;5034731;28;20445;-82
2021/04/01 10:04:19;;;;;;;62.90;35.03;;;21.10;64.10;;;;;;5041740;28;20589;-88
2021/04/01 10:06:50;;;;;;;73.53;38.47;;;20.90;65.50;;;;;;5040440;28;22154;-86
2021/04/01 10:09:16;;;;;;;66.60;36.43;;;21.00;63.20;;;;;;5049329;28;20439;-85
2021/04/01 10:12:05;;;;;;;60.00;35.33;;;21.10;63.80;;;;;;5035228;28;20437;-85
2021/04/01 10:14:32;;;;;;;61.70;34.87;;;21.10;64.00;;;;;;5034105;28;20985;-88
2021/04/01 10:17:02;;;;;;;76.83;37.73;;;21.20;63.80;;;;;;5038114;28;20919;-85
2021/04/01 10:19:44;;;;;;;71.90;39.30;;;21.30;64.20;;;;;;5043064;28;20446;-85
2021/04/01 10:22:35;;;;;;;74.20;38.00;;;21.30;65.10;;;;;;5034603;28;20438;-86
2021/04/01 10:27:47;;;;;;;61.97;36.70;;;21.60;63.50;;;;;;5052520;28;20475;-84
2021/04/01 10:30:14;;;;;;;63.03;38.50;;;21.70;64.10;;;;;;5044519;28;20584;-85
2021/04/01 10:32:49;;;;;;;71.30;40.47;;;21.80;63.60;;;;;;5025201;28;20485;-83
2021/04/01 10:35:17;;;;;;;62.43;35.57;;;22.00;62.90;;;;;;5033534;28;20430;-86
2021/04/01 10:37:48;;;;;;;54.50;30.57;;;22.10;63.60;;;;;;5034088;28;20907;-85
2021/04/01 10:40:17;;;;;;;60.00;34.07;;;22.10;62.10;;;;;;5035143;28;20473;-82
2021/04/01 10:42:46;;;;;;;58.00;34.30;;;22.20;64.50;;;;;;5042430;28;20851;-80
2021/04/01 10:45:17;;;;;;;68.77;37.50;;;22.00;63.90;;;;;;5046159;28;20451;-81
2021/04/01 10:48:15;;;;;;;62.13;37.83;;;22.00;66.60;;;;;;5036609;28;20473;-81
2021/04/01 10:50:43;;;;;;;60.67;35.93;;;22.20;66.30;;;;;;5029530;28;21090;-81
2021/04/01 10:53:19;;;;;;;57.80;35.33;;;22.40;66.60;;;;;;5040993;28;20539;-81
2021/04/01 10:55:49;;;;;;;58.83;36.27;;;22.50;66.50;;;;;;5040051;28;20899;-80
2021/04/01 10:58:16;;;;;;;67.70;38.30;;;22.50;65.00;;;;;;5024618;28;20455;-79
2021/04/01 11:01:02;;;;;;;63.57;35.30;;;22.60;65.40;;;;;;5034196;28;20560;-79
2021/04/01 11:03:30;;;;;;;57.33;32.20;;;22.50;64.00;;;;;;5026804;28;20451;-80
2021/04/01 11:06:15;;;;;;;51.63;28.50;;;22.50;61.60;;;;;;5028127;28;20842;-80
2021/04/01 11:08:43;;;;;;;51.93;28.37;;;22.50;60.50;;;;;;5023877;28;20504;-81
2021/04/01 11:11:13;;;;;;;53.43;30.50;;;22.50;61.50;;;;;;5026158;28;20448;-81
2021/04/01 11:13:41;;;;;;;51.77;31.47;;;22.80;60.30;;;;;;5048614;28;20914;-80
2021/04/01 11:16:10;;;;;;;50.13;31.20;;;22.70;59.70;;;;;;5031112;28;20457;-86
2021/04/01 11:18:47;;;;;;;50.83;31.77;;;22.60;58.80;;;;;;5029631;28;20446;-84
2021/04/01 11:21:15;;;;;;;61.47;33.67;;;22.50;59.20;;;;;;5032848;28;20434;-80
2021/04/01 11:23:41;;;;;;;59.53;32.23;;;22.30;59.40;;;;;;5051511;28;20464;-82
2021/04/01 11:26:12;;;;;;;63.40;35.43;;;22.20;59.40;;;;;;5037155;28;20857;-81
2021/04/01 11:28:50;;;;;;;63.07;34.60;;;21.90;60.80;;;;;;5023589;28;20438;-86
2021/04/01 11:31:29;;;;;;;53.93;31.80;;;22.10;61.00;;;;;;5042029;28;20410;-87
2021/04/01 11:34:00;;;;;;;65.00;36.00;;;22.50;61.30;;;;;;5031877;28;20557;-82
2021/04/01 11:36:33;;;;;;;61.40;33.10;;;22.70;59.70;;;;;;5019876;28;20898;-82
2021/04/01 11:39:02;;;;;;;61.73;36.00;;;22.80;59.50;;;;;;5031753;28;20882;-82
2021/04/01 11:41:30;;;;;;;62.70;36.83;;;22.70;58.10;;;;;;5034395;28;20465;-80
2021/04/01 11:43:58;;;;;;;71.20;37.90;;;22.90;59.10;;;;;;5030815;28;20445;-80
2021/04/01 11:46:28;;;;;;;64.80;38.17;;;22.60;59.90;;;;;;5036729;28;20435;-81
2021/04/01 11:48:59;;;;;;;65.47;38.63;;;22.40;61.20;;;;;;5032961;28;20443;-80
2021/04/01 11:51:36;;;;;;;68.33;40.07;;;22.50;63.20;;;;;;5033212;28;20918;-83
2021/04/01 11:54:07;;;;;;;75.23;42.67;;;22.80;64.80;;;;;;5030958;28;20434;-82
2021/04/01 11:56:45;;;;;;;76.30;44.00;;;22.80;64.70;;;;;;5030043;28;20441;-82
2021/04/01 11:59:28;;;;;;;71.37;43.17;;;22.80;64.40;;;;;;5039323;28;20439;-82
2021/04/01 12:02:01;;;;;;;73.73;46.03;;;22.80;63.70;;;;;;5033197;28;20438;-83
2021/04/01 12:04:32;;;;;;;70.70;45.63;;;22.40;63.80;;;;;;5035883;28;20446;-82
2021/04/01 12:06:59;;;;;;;73.13;47.27;;;22.30;66.70;;;;;;5037554;28;20565;-82
2021/04/01 12:09:27;;;;;;;76.43;46.80;;;22.40;67.40;;;;;;5043927;28;20426;-83
2021/04/01 12:11:58;;;;;;;82.07;49.07;;;22.30;68.00;;;;;;5032847;28;20513;-83
2021/04/01 12:14:39;;;;;;;78.50;48.40;;;22.40;68.30;;;;;;5024776;28;20442;-83
2021/04/01 12:17:08;;;;;;;90.37;52.60;;;22.60;68.30;;;;;;5024438;28;20425;-83
2021/04/01 12:19:35;;;;;;;77.03;48.13;;;22.40;67.90;;;;;;5045342;28;20451;-84
2021/04/01 12:22:13;;;;;;;74.07;50.87;;;22.40;69.10;;;;;;5030059;28;20497;-85
2021/04/01 12:24:39;;;;;;;82.13;50.70;;;22.40;68.60;;;;;;5032157;28;20433;-86
2021/04/01 12:27:08;;;;;;;91.63;53.33;;;22.10;69.40;;;;;;5029996;28;20462;-81
2021/04/01 12:29:44;;;;;;;85.63;53.20;;;22.00;69.80;;;;;;5011286;28;20431;-81
2021/04/01 12:32:23;;;;;;;82.73;52.23;;;22.10;68.40;;;;;;5027643;28;20474;-82
2021/04/01 12:35:16;;;;;;;89.30;53.53;;;22.20;68.90;;;;;;5031211;28;20434;-81
2021/04/01 12:38:01;;;;;;;73.77;51.13;;;22.20;66.50;;;;;;5026794;28;20807;-80
2021/04/01 12:40:38;;;;;;;86.20;52.57;;;21.50;67.60;;;;;;5031012;28;20843;-81
2021/04/01 12:43:07;;;;;;;80.83;52.87;;;21.30;69.40;;;;;;5032101;28;20468;-79
2021/04/01 12:45:34;;;;;;;86.47;54.57;;;21.10;68.90;;;;;;5037228;28;20933;-80
2021/04/01 12:48:14;;;;;;;90.87;54.10;;;21.10;69.30;;;;;;5032257;28;20470;-80
2021/04/01 12:50:48;;;;;;;76.50;51.53;;;21.00;70.30;;;;;;5027424;28;20422;-78
2021/04/01 12:53:22;;;;;;;80.50;51.30;;;21.10;69.90;;;;;;5034026;28;20445;-84
2021/04/01 12:56:46;;;;;;;80.50;52.97;;;21.40;71.30;;;;;;5033006;28;20428;-82
2021/04/01 12:59:01;;;;;;;82.17;52.47;;;21.60;71.50;;;;;;5032315;28;20449;-84
2021/04/01 13:01:31;;;;;;;81.33;54.50;;;21.60;70.50;;;;;;5047382;28;20742;-82
2021/04/01 13:04:03;;;;;;;82.80;52.90;;;21.70;70.60;;;;;;5053133;28;20803;-86
2021/04/01 13:11:36;;;;;;;70.80;47.87;;;21.60;68.30;;;;;;5028903;28;20444;-86
2021/04/01 13:14:02;;;;;;;74.33;48.90;;;21.50;68.90;;;;;;5049714;28;20448;-85
2021/04/01 13:16:31;;;;;;;66.13;43.63;;;21.70;71.60;;;;;;5034552;28;20813;-82
2021/04/01 13:18:57;;;;;;;61.50;43.20;;;21.80;68.00;;;;;;5031026;28;20458;-89
2021/04/01 13:21:41;;;;;;;66.73;42.90;;;21.90;69.10;;;;;;5036033;28;20477;-85
2021/04/01 13:24:30;;;;;;;66.57;42.43;;;21.60;66.10;;;;;;5052242;28;20438;-85
2021/04/01 13:26:57;;;;;;;59.70;40.97;;;21.70;68.20;;;;;;5036451;28;20930;-84
2021/04/01 13:29:34;;;;;;;60.20;37.97;;;21.80;66.90;;;;;;5049706;28;20530;-86
2021/04/01 13:32:06;;;;;;;54.63;35.93;;;21.50;67.00;;;;;;5045163;28;20760;-89
2021/04/01 13:34:44;;;;;;;45.87;32.07;;;21.60;67.50;;;;;;5048599;28;20453;-85
2021/04/01 13:37:15;;;;;;;45.27;31.37;;;21.70;65.20;;;;;;5044898;28;20895;-87
2021/04/01 13:39:53;;;;;;;41.00;30.60;;;21.80;65.30;;;;;;5031243;28;20451;-87
2021/04/01 13:42:25;;;;;;;39.60;28.17;;;21.60;64.70;;;;;;5052869;28;20444;-85
2021/04/01 13:45:06;;;;;;;41.90;28.27;;;21.40;64.40;;;;;;5027758;28;20918;-86
2021/04/01 13:47:40;;;;;;;37.80;27.43;;;21.10;64.50;;;;;;5027955;28;20461;-84
2021/04/01 13:50:07;;;;;;;35.70;25.80;;;21.20;66.70;;;;;;5050062;28;20465;-88
2021/04/01 13:52:41;;;;;;;30.80;22.07;;;21.30;68.80;;;;;;5041308;28;20436;-91
2021/04/01 13:58:24;;;;;;;31.00;20.73;;;21.70;65.50;;;;;;5028363;28;20501;-86
2021/04/01 14:09:18;;;;;;;20.03;15.80;;;21.90;62.60;;;;;;5024671;28;20422;-87
2021/04/01 14:11:48;;;;;;;16.40;13.80;;;21.90;62.30;;;;;;5027217;28;20420;-86
2021/04/01 14:14:15;;;;;;;15.77;14.17;;;21.80;61.30;;;;;;5027739;28;20442;-87
2021/04/01 14:16:41;;;;;;;22.20;14.50;;;21.70;62.30;;;;;;5034903;28;20440;-88
2021/04/01 14:19:12;;;;;;;15.40;13.90;;;21.70;62.60;;;;;;5020739;28;20476;-87
2021/04/01 14:21:41;;;;;;;17.17;13.80;;;21.90;62.90;;;;;;5032796;28;20434;-84
2021/04/01 14:24:11;;;;;;;16.23;11.90;;;22.10;61.60;;;;;;5053740;28;20868;-85
2021/04/01 14:26:47;;;;;;;14.17;12.30;;;22.10;62.10;;;;;;5030547;28;20466;-89
2021/04/01 14:29:14;;;;;;;14.93;13.33;;;22.00;63.20;;;;;;5017258;28;20430;-87
2021/04/01 14:31:40;;;;;;;14.00;11.60;;;22.30;64.00;;;;;;5035857;28;21045;-88
2021/04/01 14:34:07;;;;;;;14.40;11.50;;;22.50;62.80;;;;;;5035146;28;20523;-87
2021/04/01 14:36:33;;;;;;;12.50;11.40;;;22.60;63.50;;;;;;5034375;28;20526;-84
2021/04/01 14:39:02;;;;;;;13.30;12.00;;;22.50;62.40;;;;;;5034563;28;20434;-85